Time;durP1;ratioP1;P1;durP2;ratioP2;P2;SDS_P1;SDS_P2;PMS_P1;PMS_P2;Temp;Humidity;BMP_temperature;BMP_pressure;BME280_temperature;BME280_humidity;BME280_pressure;Samples;Min_cycle;Max_cycle;Signal;HPM_P1;HPM_P2
2021/04/29 00:00:13;;;;;;;16.38;8.38;;;;;;;-141.50;100.00;63355.56;5019335;28;20491;-76
2021/04/29 00:02:40;;;;;;;15.52;7.47;;;;;;;-141.50;100.00;63355.56;5053404;28;20045;-76
2021/04/29 00:05:09;;;;;;;14.38;8.25;;;;;;;-141.50;100.00;63355.56;5035900;28;20538;-76
2021/04/29 00:07:36;;;;;;;20.92;7.50;;;;;;;-141.50;100.00;63355.56;5053627;28;20481;-77
2021/04/29 00:10:06;;;;;;;16.02;7.63;;;;;;;-141.50;100.00;63355.56;5053637;28;20045;-76
2021/04/29 00:12:32;;;;;;;16.60;8.23;;;;;;;-141.50;100.00;63355.56;5053252;28;20049;-78
2021/04/29 00:15:00;;;;;;;18.77;7.80;;;;;;;-141.50;100.00;63355.56;5053709;28;20404;-78
2021/04/29 00:17:27;;;;;;;12.77;7.47;;;;;;;-141.50;100.00;63355.56;5052872;28;20408;-78
2021/04/29 00:19:54;;;;;;;16.33;7.57;;;;;;;-141.50;100.00;63355.56;5052438;28;20052;-77
2021/04/29 00:22:20;;;;;;;15.45;7.85;;;;;;;-141.50;100.00;63355.56;5052550;28;20148;-77
2021/04/29 00:24:46;;;;;;;14.15;6.85;;;;;;;-141.50;100.00;63355.56;5052638;28;20047;-77
2021/04/29 00:27:12;;;;;;;11.70;7.35;;;;;;;-141.50;100.00;63355.56;5035259;28;20041;-77
2021/04/29 00:29:38;;;;;;;13.88;7.43;;;;;;;-141.50;100.00;63355.56;5034862;28;20044;-77
2021/04/29 00:32:05;;;;;;;13.15;7.60;;;;;;;-141.50;100.00;63355.56;5052162;28;20045;-77
2021/04/29 00:34:32;;;;;;;15.73;7.85;;;;;;;-141.50;100.00;63355.56;5051882;28;20048;-77
2021/04/29 00:36:58;;;;;;;14.60;7.68;;;;;;;-141.50;100.00;63355.56;5052958;28;20041;-77
2021/04/29 00:39:24;;;;;;;13.75;7.07;;;;;;;-141.50;100.00;63355.56;5052559;28;20041;-76
2021/04/29 00:41:50;;;;;;;12.57;6.97;;;;;;;-141.50;100.00;63355.56;5052417;28;20497;-77
2021/04/29 00:44:16;;;;;;;12.20;6.97;;;;;;;-141.50;100.00;63355.56;5052581;28;20045;-77
2021/04/29 00:46:46;;;;;;;17.80;7.32;;;;;;;-141.50;100.00;63355.56;5052799;28;20049;-77
2021/04/29 00:49:15;;;;;;;16.33;7.03;;;;;;;-141.50;100.00;63355.56;5051898;28;20083;-76
2021/04/29 00:51:41;;;;;;;11.50;6.85;;;;;;;-141.50;100.00;63355.56;5018090;28;20048;-76
2021/04/29 00:54:07;;;;;;;19.58;7.10;;;;;;;-141.50;100.00;63355.56;5052248;28;20048;-76
2021/04/29 00:56:33;;;;;;;13.75;6.95;;;;;;;-141.50;100.00;63355.56;5050542;28;20040;-77
2021/04/29 00:59:03;;;;;;;17.02;6.47;;;;;;;-141.50;100.00;63355.56;5051258;28;20040;-78
2021/04/29 01:01:35;;;;;;;14.23;6.70;;;;;;;-141.50;100.00;63355.56;5051239;28;20428;-76
2021/04/29 01:04:26;;;;;;;17.80;7.00;;;;;;;-141.50;100.00;63355.56;5033640;28;20086;-77
2021/04/29 01:06:59;;;;;;;13.48;7.28;;;;;;;-141.50;100.00;63355.56;5051551;28;20053;-76
2021/04/29 01:09:40;;;;;;;11.45;6.65;;;;;;;-141.50;100.00;63355.56;5052055;28;20048;-76
2021/04/29 01:12:18;;;;;;;10.48;6.40;;;;;;;-141.50;100.00;63355.56;5051300;28;20052;-77
2021/04/29 01:14:46;;;;;;;12.93;6.60;;;;;;;-141.50;100.00;63355.56;5050826;28;20056;-76
2021/04/29 01:17:13;;;;;;;19.42;7.18;;;;;;;-141.50;100.00;63355.56;5050703;28;20598;-77
2021/04/29 01:19:47;;;;;;;13.93;6.00;;;;;;;-141.50;100.00;63355.56;5051373;28;20591;-77
2021/04/29 01:22:14;;;;;;;12.45;6.70;;;;;;;-141.50;100.00;63355.56;5051091;28;20045;-77
2021/04/29 01:25:08;;;;;;;14.27;6.45;;;;;;;-141.50;100.00;63355.56;5051186;28;20447;-78
2021/04/29 01:27:34;;;;;;;12.95;6.68;;;;;;;-141.50;100.00;63355.56;5050500;28;20064;-75
2021/04/29 01:30:05;;;;;;;11.05;6.13;;;;;;;-141.50;100.00;63355.56;5052555;28;20041;-75
2021/04/29 01:32:33;;;;;;;9.75;5.88;;;;;;;-141.50;100.00;63355.56;5051445;28;20037;-75
2021/04/29 01:35:00;;;;;;;12.23;6.10;;;;;;;-141.50;100.00;63355.56;5034003;28;20047;-77
2021/04/29 01:37:27;;;;;;;11.93;6.25;;;;;;;-141.50;100.00;63355.56;5016693;28;20096;-76
2021/04/29 01:39:53;;;;;;;12.85;6.43;;;;;;;-141.50;100.00;63355.56;5051941;28;20044;-76
2021/04/29 01:42:19;;;;;;;12.02;6.28;;;;;;;-141.50;100.00;63355.56;5051021;28;20055;-77
2021/04/29 01:44:46;;;;;;;12.95;6.43;;;;;;;-141.50;100.00;63355.56;5050949;28;20045;-75
2021/04/29 01:47:12;;;;;;;11.13;6.32;;;;;;;-141.50;100.00;63355.56;5051181;28;20051;-77
2021/04/29 01:49:39;;;;;;;15.32;6.85;;;;;;;-141.50;100.00;63355.56;5051014;28;20037;-77
2021/04/29 01:52:09;;;;;;;16.70;7.07;;;;;;;-141.50;100.00;63355.56;5051450;28;20051;-78
2021/04/29 01:54:37;;;;;;;15.20;6.38;;;;;;;-141.50;100.00;63355.56;5052008;28;20099;-77
2021/04/29 01:57:04;;;;;;;13.50;6.70;;;;;;;-141.50;100.00;63355.56;5051899;28;20065;-76
2021/04/29 01:59:31;;;;;;;10.52;6.07;;;;;;;-141.50;100.00;63355.56;5033510;28;20040;-76
2021/04/29 02:01:57;;;;;;;13.13;6.60;;;;;;;-141.50;100.00;63355.56;5057065;28;20042;-77
2021/04/29 02:04:25;;;;;;;14.43;6.28;;;;;;;-141.50;100.00;63355.56;5071017;28;20467;-77
2021/04/29 02:06:51;;;;;;;12.02;6.28;;;;;;;-141.50;100.00;63355.56;5053849;28;20052;-77
2021/04/29 02:09:17;;;;;;;10.38;6.00;;;;;;;-141.50;100.00;63355.56;5070084;28;20040;-78
2021/04/29 02:11:53;;;;;;;16.77;6.25;;;;;;;-141.50;100.00;63355.56;5071246;28;20054;-77
2021/04/29 02:14:28;;;;;;;;;;;;;;;-141.50;100.00;63355.56;5070286;28;20059;-78
2021/04/29 02:16:58;;;;;;;12.02;5.65;;;;;;;-141.50;100.00;63355.56;5069599;28;19931;-77
2021/04/29 02:19:30;;;;;;;16.67;6.43;;;;;;;-141.50;100.00;63355.56;5070664;28;20115;-77
2021/04/29 02:21:57;;;;;;;12.13;6.07;;;;;;;-141.50;100.00;63355.56;5052930;28;20115;-76
2021/04/29 02:24:25;;;;;;;11.80;6.57;;;;;;;-141.50;100.00;63355.56;5071202;28;20091;-76
2021/04/29 02:26:51;;;;;;;14.20;6.55;;;;;;;-141.50;100.00;63355.56;5070597;28;20044;-76
2021/04/29 02:29:21;;;;;;;16.23;6.30;;;;;;;-141.50;100.00;63355.56;5070397;28;20055;-77
2021/04/29 02:31:50;;;;;;;12.02;6.63;;;;;;;-141.50;100.00;63355.56;5052498;28;20037;-77
2021/04/29 02:34:16;;;;;;;15.02;6.60;;;;;;;-141.50;100.00;63355.56;5070547;28;20045;-77
2021/04/29 02:36:42;;;;;;;15.02;6.43;;;;;;;-141.50;100.00;63355.56;5070101;28;20036;-77
2021/04/29 02:39:09;;;;;;;13.13;6.75;;;;;;;-141.50;100.00;63355.56;5070719;28;20047;-77
2021/04/29 02:41:35;;;;;;;10.18;6.22;;;;;;;-141.50;100.00;63355.56;5071933;28;20131;-76
2021/04/29 02:44:03;;;;;;;11.35;6.53;;;;;;;-141.50;100.00;63355.56;5074278;28;20045;-76
2021/04/29 02:46:29;;;;;;;13.82;6.75;;;;;;;-141.50;100.00;63355.56;5057037;28;20051;-77
2021/04/29 02:48:55;;;;;;;12.55;6.60;;;;;;;-141.50;100.00;63355.56;5074522;28;20548;-77
2021/04/29 02:51:22;;;;;;;16.27;6.70;;;;;;;-141.50;100.00;63355.56;5056423;28;20048;-77
2021/04/29 02:53:48;;;;;;;10.00;6.38;;;;;;;-141.50;100.00;63355.56;5055877;28;20461;-77
2021/04/29 02:56:15;;;;;;;13.68;6.70;;;;;;;-141.50;100.00;63355.56;5055952;28;20041;-77
2021/04/29 02:58:43;;;;;;;17.33;6.38;;;;;;;-141.50;100.00;63355.56;5056137;28;20041;-76
2021/04/29 03:01:10;;;;;;;15.63;6.40;;;;;;;-141.50;100.00;63355.56;5056460;28;20040;-76
2021/04/29 03:03:36;;;;;;;11.68;5.78;;;;;;;-141.50;100.00;63355.56;5055938;28;20127;-76
2021/04/29 03:06:03;;;;;;;11.27;6.07;;;;;;;-141.50;100.00;63355.56;5073844;28;20492;-77
2021/04/29 03:08:30;;;;;;;11.43;6.10;;;;;;;-141.50;100.00;63355.56;5056279;28;20041;-76
2021/04/29 03:10:57;;;;;;;15.93;6.65;;;;;;;-141.50;100.00;63355.56;5057830;28;20041;-76
2021/04/29 03:13:23;;;;;;;15.57;6.82;;;;;;;-141.50;100.00;63355.56;5075758;28;20094;-77
2021/04/29 03:15:49;;;;;;;12.30;6.50;;;;;;;-141.50;100.00;63355.56;5075658;28;20048;-76
2021/04/29 03:18:16;;;;;;;13.50;7.00;;;;;;;-141.50;100.00;63355.56;5073932;28;20048;-77
2021/04/29 03:20:42;;;;;;;13.02;6.80;;;;;;;-141.50;100.00;63355.56;5073782;28;20626;-76
2021/04/29 03:23:08;;;;;;;10.63;6.40;;;;;;;-141.50;100.00;63355.56;5072518;28;20412;-76
2021/04/29 03:25:35;;;;;;;15.38;6.90;;;;;;;-141.50;100.00;63355.56;5072442;28;20044;-76
2021/04/29 03:28:02;;;;;;;10.20;6.18;;;;;;;-141.50;100.00;63355.56;5074128;28;20047;-76
2021/04/29 03:30:30;;;;;;;13.73;6.30;;;;;;;-141.50;100.00;63355.56;5073637;28;20036;-76
2021/04/29 03:32:56;;;;;;;16.08;7.00;;;;;;;-141.50;100.00;63355.56;5072862;28;20475;-76
2021/04/29 03:35:22;;;;;;;12.82;6.22;;;;;;;-141.50;100.00;63355.56;5056048;28;20040;-76
2021/04/29 03:37:48;;;;;;;12.18;6.53;;;;;;;-141.50;100.00;63355.56;5073625;28;20143;-77
2021/04/29 03:40:15;;;;;;;11.65;5.93;;;;;;;-141.50;100.00;63355.56;5073679;28;20051;-78
2021/04/29 03:42:43;;;;;;;12.18;6.55;;;;;;;-141.50;100.00;63355.56;5073038;28;20055;-76
2021/04/29 03:45:10;;;;;;;14.30;5.68;;;;;;;-141.50;100.00;63355.56;5055768;28;20071;-76
2021/04/29 03:47:36;;;;;;;12.02;6.38;;;;;;;-141.50;100.00;63355.56;5072984;28;20553;-76
2021/04/29 03:50:04;;;;;;;10.57;6.28;;;;;;;-141.50;100.00;63355.56;5074309;28;20037;-76
2021/04/29 03:52:29;;;;;;;10.38;6.30;;;;;;;-141.50;100.00;63355.56;5072485;28;20051;-76
2021/04/29 03:54:56;;;;;;;11.77;6.50;;;;;;;-141.50;100.00;63355.56;5061376;28;20132;-76
2021/04/29 03:57:22;;;;;;;10.13;6.60;;;;;;;-141.50;100.00;63355.56;5074108;28;20491;-76
2021/04/29 03:59:48;;;;;;;11.57;6.60;;;;;;;-141.50;100.00;63355.56;5074295;28;20036;-76
2021/04/29 04:02:14;;;;;;;14.38;6.88;;;;;;;-141.50;100.00;63355.56;5072846;28;20048;-77
2021/04/29 04:04:40;;;;;;;10.27;6.50;;;;;;;-141.50;100.00;63355.56;5073617;28;20052;-76
2021/04/29 04:07:06;;;;;;;14.15;6.50;;;;;;;-141.50;100.00;63355.56;5055554;28;20048;-75
2021/04/29 04:09:32;;;;;;;11.75;6.90;;;;;;;-141.50;100.00;63355.56;5073022;28;20037;-77
2021/04/29 04:11:59;;;;;;;12.35;6.47;;;;;;;-141.50;100.00;63355.56;5054922;28;20136;-77
2021/04/29 04:14:30;;;;;;;12.50;6.72;;;;;;;-141.50;100.00;63355.56;5074118;28;20100;-77
2021/04/29 04:16:56;;;;;;;12.73;7.00;;;;;;;-141.50;100.00;63355.56;5060929;28;20374;-76
2021/04/29 04:19:23;;;;;;;11.27;6.85;;;;;;;-141.50;100.00;63355.56;5033942;28;20038;-76
2021/04/29 04:21:48;;;;;;;16.35;7.32;;;;;;;-141.50;100.00;63355.56;5033241;28;20038;-77
2021/04/29 04:24:15;;;;;;;14.02;7.43;;;;;;;-141.50;100.00;63355.56;5044792;28;20030;-78
2021/04/29 04:26:41;;;;;;;17.05;6.80;;;;;;;-141.50;100.00;63355.56;5019803;28;20061;-76
2021/04/29 04:29:07;;;;;;;13.75;6.93;;;;;;;-141.50;100.00;63355.56;5017564;28;20044;-77
2021/04/29 04:31:33;;;;;;;16.70;7.28;;;;;;;-141.50;100.00;63355.56;5035223;28;20125;-77
2021/04/29 04:34:00;;;;;;;12.50;7.70;;;;;;;-141.50;100.00;63355.56;4999561;28;20497;-77
2021/04/29 04:36:26;;;;;;;16.00;7.22;;;;;;;-141.50;100.00;63355.56;5033289;28;20049;-77
2021/04/29 04:38:52;;;;;;;14.30;7.18;;;;;;;-141.50;100.00;63355.56;5033736;28;20534;-77
2021/04/29 04:41:18;;;;;;;17.25;7.53;;;;;;;-141.50;100.00;63355.56;5032777;28;20360;-77
2021/04/29 04:43:44;;;;;;;11.93;7.18;;;;;;;-141.50;100.00;63355.56;5014796;28;20045;-77
2021/04/29 04:46:10;;;;;;;15.02;6.55;;;;;;;-141.50;100.00;63355.56;5032589;28;20050;-76
2021/04/29 04:48:36;;;;;;;16.73;7.28;;;;;;;-141.50;100.00;63355.56;5031741;28;20124;-78
2021/04/29 04:51:03;;;;;;;12.20;6.90;;;;;;;-141.50;100.00;63355.56;5035990;28;20073;-77
2021/04/29 04:53:29;;;;;;;11.52;6.90;;;;;;;-141.50;100.00;63355.56;5053179;28;20116;-77
2021/04/29 04:55:55;;;;;;;12.27;6.50;;;;;;;-141.50;100.00;63355.56;5031932;28;20123;-78
2021/04/29 04:58:22;;;;;;;15.23;7.07;;;;;;;-141.50;100.00;63355.56;5015343;28;20390;-78
2021/04/29 05:00:50;;;;;;;18.10;8.23;;;;;;;-141.50;100.00;63355.56;5032597;28;20497;-77
2021/04/29 05:03:17;;;;;;;15.02;7.90;;;;;;;-141.50;100.00;63355.56;5031715;28;20049;-77
2021/04/29 05:05:44;;;;;;;14.43;7.68;;;;;;;-141.50;100.00;63355.56;5033644;28;20041;-77
2021/04/29 05:08:11;;;;;;;14.52;7.47;;;;;;;-141.50;100.00;63355.56;5042412;28;20263;-78
2021/04/29 05:10:37;;;;;;;18.13;7.97;;;;;;;-141.50;100.00;63355.56;5044443;28;20057;-77
2021/04/29 05:13:05;;;;;;;16.80;8.73;;;;;;;-141.50;100.00;63355.56;5051207;28;20052;-77
2021/04/29 05:15:33;;;;;;;19.55;8.32;;;;;;;-141.50;100.00;63355.56;5034140;28;20056;-78
2021/04/29 05:17:59;;;;;;;18.13;8.50;;;;;;;-141.50;100.00;63355.56;5051850;28;20049;-78
2021/04/29 05:20:26;;;;;;;14.10;8.18;;;;;;;-141.50;100.00;63355.56;5034542;28;20095;-78
2021/04/29 05:22:52;;;;;;;17.15;8.98;;;;;;;-141.50;100.00;63355.56;5060766;23;20044;-75
2021/04/29 05:25:20;;;;;;;23.15;12.65;;;;;;;-141.50;100.00;63355.56;5049332;28;20506;-75
2021/04/29 05:27:46;;;;;;;20.88;10.07;;;;;;;-141.50;100.00;63355.56;5047021;28;20045;-76
2021/04/29 05:30:12;;;;;;;23.58;11.50;;;;;;;-141.50;100.00;63355.56;5031777;28;20049;-74
2021/04/29 05:32:38;;;;;;;26.73;10.63;;;;;;;-141.50;100.00;63355.56;5030761;28;20052;-76
2021/04/29 05:35:05;;;;;;;24.00;12.77;;;;;;;-141.50;100.00;63355.56;5031502;28;20044;-73
2021/04/29 05:37:31;;;;;;;25.70;11.73;;;;;;;-141.50;100.00;63355.56;5031416;28;20048;-75
2021/04/29 05:39:57;;;;;;;23.85;11.13;;;;;;;-141.50;100.00;63355.56;5031545;28;20044;-76
2021/04/29 05:42:24;;;;;;;23.50;11.20;;;;;;;-141.50;100.00;63355.56;5032400;28;20056;-76
2021/04/29 05:44:50;;;;;;;22.98;11.88;;;;;;;-141.50;100.00;63355.56;5036931;28;20117;-77
2021/04/29 05:47:16;;;;;;;21.50;10.40;;;;;;;-141.50;100.00;63355.56;5056793;28;20070;-75
2021/04/29 05:49:43;;;;;;;28.52;12.20;;;;;;;-141.50;100.00;63355.56;5016832;28;20550;-76
2021/04/29 05:52:12;;;;;;;33.92;11.55;;;;;;;-141.50;100.00;63355.56;5048095;28;20048;-75
2021/04/29 05:54:40;;;;;;;29.00;10.93;;;;;;;-141.50;100.00;63355.56;5034136;28;20463;-75
2021/04/29 05:57:06;;;;;;;24.85;10.35;;;;;;;-141.50;100.00;63355.56;5014818;28;20451;-76
2021/04/29 05:59:34;;;;;;;20.40;10.00;;;;;;;-141.50;100.00;63355.56;5041300;28;20544;-77
2021/04/29 06:02:00;;;;;;;24.38;10.60;;;;;;;-141.50;100.00;63355.56;5016941;28;20469;-74
2021/04/29 06:04:42;;;;;;;26.55;12.48;;;;;;;-141.50;100.00;63355.56;5036644;28;20060;-77
2021/04/29 06:07:09;;;;;;;31.05;12.60;;;;;;;-141.50;100.00;63355.56;5012236;28;20152;-76
2021/04/29 06:09:38;;;;;;;22.88;11.00;;;;;;;-141.50;100.00;63355.56;5046305;28;20064;-75
2021/04/29 06:12:04;;;;;;;24.55;10.63;;;;;;;-141.50;100.00;63355.56;5051672;28;20210;-78
2021/04/29 06:14:31;;;;;;;20.52;11.20;;;;;;;-141.50;100.00;63355.56;5050993;28;20420;-80
2021/04/29 06:16:57;;;;;;;24.42;11.45;;;;;;;-141.50;100.00;63355.56;5034648;28;20490;-76
2021/04/29 06:19:23;;;;;;;22.15;11.60;;;;;;;-141.50;100.00;63355.56;5031839;28;20044;-76
2021/04/29 06:21:52;;;;;;;26.40;12.00;;;;;;;-141.50;100.00;63355.56;5045947;28;20055;-75
2021/04/29 06:24:18;;;;;;;24.40;12.05;;;;;;;-141.50;100.00;63355.56;5020091;28;20053;-73
2021/04/29 06:26:44;;;;;;;18.27;11.40;;;;;;;-141.50;100.00;63355.56;5034303;28;20056;-74
2021/04/29 06:29:10;;;;;;;24.00;12.15;;;;;;;-141.50;100.00;63355.56;5035218;28;20044;-76
2021/04/29 06:31:39;;;;;;;22.40;11.60;;;;;;;-141.50;100.00;63355.56;5039689;28;20492;-74
2021/04/29 06:34:05;;;;;;;22.05;12.00;;;;;;;-141.50;100.00;63355.56;5035936;28;20048;-75
2021/04/29 06:36:32;;;;;;;28.08;12.98;;;;;;;-141.50;100.00;63355.56;5035866;28;20048;-76
2021/04/29 06:38:59;;;;;;;24.60;10.90;;;;;;;-141.50;100.00;63355.56;5017737;28;20539;-74
2021/04/29 06:41:25;;;;;;;22.27;11.13;;;;;;;-141.50;100.00;63355.56;5034602;28;20555;-73
2021/04/29 06:43:52;;;;;;;23.23;11.73;;;;;;;-141.50;100.00;63355.56;5036046;28;20045;-73
2021/04/29 06:46:18;;;;;;;20.13;11.82;;;;;;;-141.50;100.00;63355.56;5037238;28;20050;-75
2021/04/29 06:48:44;;;;;;;19.58;10.93;;;;;;;-141.50;100.00;63355.56;5033708;28;20115;-76
2021/04/29 06:51:10;;;;;;;22.10;10.70;;;;;;;-141.50;100.00;63355.56;5038479;28;20049;-75
2021/04/29 06:53:56;;;;;;;20.95;10.65;;;;;;;-141.50;100.00;63355.56;5026573;28;20099;-75
2021/04/29 06:56:22;;;;;;;15.70;10.25;;;;;;;-141.50;100.00;63355.56;5046091;28;20052;-76
2021/04/29 06:59:04;;;;;;;18.65;10.32;;;;;;;-141.50;100.00;63355.56;5020732;28;20038;-75
2021/04/29 07:01:30;;;;;;;19.27;11.05;;;;;;;-141.50;100.00;63355.56;5013580;28;20076;-75
2021/04/29 07:03:57;;;;;;;19.63;10.13;;;;;;;-141.50;100.00;63355.56;5046812;28;20049;-75
2021/04/29 07:06:24;;;;;;;19.85;11.35;;;;;;;-141.50;100.00;63355.56;5047151;28;20476;-75
2021/04/29 07:08:56;;;;;;;18.52;10.00;;;;;;;-141.50;100.00;63355.56;5063713;28;20048;-76
2021/04/29 07:11:22;;;;;;;21.55;10.60;;;;;;;-141.50;100.00;63355.56;5047018;28;20511;-75
2021/04/29 07:13:48;;;;;;;23.73;10.57;;;;;;;-141.50;100.00;63355.56;5064340;28;20062;-75
2021/04/29 07:16:14;;;;;;;17.05;10.60;;;;;;;-141.50;100.00;63355.56;5011641;28;20049;-76
2021/04/29 07:18:41;;;;;;;26.25;11.15;;;;;;;-141.50;100.00;63355.56;5043356;28;20044;-75
2021/04/29 07:21:07;;;;;;;21.10;11.23;;;;;;;-141.50;100.00;63355.56;5026873;28;20165;-76
2021/04/29 07:23:33;;;;;;;21.55;11.93;;;;;;;-141.50;100.00;63355.56;5044990;28;20048;-76
2021/04/29 07:25:59;;;;;;;19.00;11.20;;;;;;;-141.50;100.00;63355.56;5046342;28;20058;-75
2021/04/29 07:28:27;;;;;;;21.67;11.68;;;;;;;-141.50;100.00;63355.56;5048363;28;20517;-75
2021/04/29 07:30:54;;;;;;;19.48;11.48;;;;;;;-141.50;100.00;63355.56;5034022;28;20048;-74
2021/04/29 07:33:22;;;;;;;18.92;11.32;;;;;;;-141.50;100.00;63355.56;5049550;28;20044;-75
2021/04/29 07:35:51;;;;;;;17.40;10.98;;;;;;;-141.50;100.00;63355.56;5033289;28;20421;-74
2021/04/29 07:38:17;;;;;;;16.80;10.93;;;;;;;-141.50;100.00;63355.56;5019158;28;20099;-74
2021/04/29 07:40:43;;;;;;;18.98;10.85;;;;;;;-141.50;100.00;63355.56;5038201;28;20041;-75
2021/04/29 07:43:09;;;;;;;16.35;10.95;;;;;;;-141.50;100.00;63355.56;5019304;28;20044;-75
2021/04/29 07:45:36;;;;;;;19.05;10.65;;;;;;;-141.50;100.00;63355.56;5036034;28;20049;-75
2021/04/29 07:48:03;;;;;;;17.80;10.63;;;;;;;-141.50;100.00;63355.56;5006525;28;20054;-72
2021/04/29 07:50:31;;;;;;;17.48;10.27;;;;;;;-141.50;100.00;63355.56;5038164;28;20033;-75
2021/04/29 07:53:01;;;;;;;16.88;9.13;;;;;;;-141.50;100.00;63355.56;5021126;28;20045;-79
2021/04/29 07:55:28;;;;;;;15.80;9.32;;;;;;;-141.50;100.00;63355.56;5038066;28;20075;-76
2021/04/29 07:57:54;;;;;;;18.10;9.77;;;;;;;-141.50;100.00;63355.56;5039761;28;20111;-76
2021/04/29 08:00:21;;;;;;;15.43;8.93;;;;;;;-141.50;100.00;63355.56;5021349;28;20051;-76
2021/04/29 08:02:46;;;;;;;13.48;8.25;;;;;;;-141.50;100.00;63355.56;5017973;28;20107;-75
2021/04/29 08:05:13;;;;;;;15.45;9.85;;;;;;;-141.50;100.00;63355.56;5003522;28;20057;-76
2021/04/29 08:07:40;;;;;;;13.93;9.65;;;;;;;-141.50;100.00;63355.56;5029022;28;20056;-76
2021/04/29 08:10:09;;;;;;;18.45;10.23;;;;;;;-141.50;100.00;63355.56;5066580;28;20044;-75
2021/04/29 08:12:35;;;;;;;17.20;9.85;;;;;;;-141.50;100.00;63355.56;5066005;28;20044;-75
2021/04/29 08:15:03;;;;;;;15.70;9.63;;;;;;;-141.50;100.00;63355.56;5067070;28;20591;-75
2021/04/29 08:17:30;;;;;;;16.02;10.27;;;;;;;-141.50;100.00;63355.56;5049799;28;20055;-77
2021/04/29 08:19:57;;;;;;;18.00;10.07;;;;;;;-141.50;100.00;63355.56;5068367;28;20049;-77
2021/04/29 08:22:26;;;;;;;14.80;9.70;;;;;;;-141.50;100.00;63355.56;5049731;28;20052;-75
2021/04/29 08:24:55;;;;;;;13.27;9.60;;;;;;;-141.50;100.00;63355.56;5067292;28;20048;-75
2021/04/29 08:27:23;;;;;;;14.43;9.07;;;;;;;-141.50;100.00;63355.56;5047480;28;20053;-76
2021/04/29 08:29:51;;;;;;;17.08;8.32;;;;;;;-141.50;100.00;63355.56;5068252;28;20409;-75
2021/04/29 08:32:19;;;;;;;11.73;6.50;;;;;;;-141.50;100.00;63355.56;5068786;28;20044;-76
2021/04/29 08:34:46;;;;;;;14.77;6.80;;;;;;;-141.50;100.00;63355.56;5069062;28;20322;-76
2021/04/29 08:37:13;;;;;;;10.55;7.18;;;;;;;-141.50;100.00;63355.56;5051091;28;20362;-76
2021/04/29 08:39:39;;;;;;;13.70;8.43;;;;;;;-141.50;100.00;63355.56;5065722;28;20049;-76
2021/04/29 08:42:06;;;;;;;11.43;7.18;;;;;;;-141.50;100.00;63355.56;5068039;28;20040;-75
2021/04/29 08:44:34;;;;;;;12.07;7.90;;;;;;;-141.50;100.00;63355.56;5050126;28;20048;-76
2021/04/29 08:47:15;;;;;;;13.65;8.60;;;;;;;-141.50;100.00;63355.56;5043868;28;20412;-76
2021/04/29 08:49:41;;;;;;;14.10;8.27;;;;;;;-141.50;100.00;63355.56;5030100;28;20041;-75
2021/04/29 08:52:08;;;;;;;11.02;6.75;;;;;;;-141.50;100.00;63355.56;5011686;28;20052;-76
2021/04/29 08:54:37;;;;;;;8.85;6.65;;;;;;;-141.50;100.00;63355.56;5047013;28;20059;-76
2021/04/29 08:57:07;;;;;;;5.68;3.90;;;;;;;-141.50;100.00;63355.56;5046899;28;20436;-75
2021/04/29 08:59:34;;;;;;;5.63;4.00;;;;;;;-141.50;100.00;63355.56;5028389;28;20049;-75
2021/04/29 09:02:00;;;;;;;6.88;3.75;;;;;;;-141.50;100.00;63355.56;5046398;28;20047;-75
2021/04/29 09:04:38;;;;;;;6.05;4.07;;;;;;;-141.50;100.00;63355.56;5046592;28;20080;-76
2021/04/29 09:07:15;;;;;;;7.07;4.47;;;;;;;-141.50;100.00;63355.56;5028723;28;20044;-76
2021/04/29 09:09:45;;;;;;;5.70;3.83;;;;;;;-141.50;100.00;63355.56;5028858;28;20049;-74
2021/04/29 09:12:12;;;;;;;5.00;3.80;;;;;;;-141.50;100.00;63355.56;5036226;28;20076;-74
2021/04/29 09:14:42;;;;;;;7.50;4.18;;;;;;;-141.50;100.00;63355.56;5032972;28;20055;-74
2021/04/29 09:17:10;;;;;;;4.05;2.90;;;;;;;-141.50;100.00;63355.56;5046806;28;20044;-75
2021/04/29 09:19:50;;;;;;;4.28;2.47;;;;;;;-141.50;100.00;63355.56;5046641;28;20505;-75
2021/04/29 09:22:20;;;;;;;5.55;3.38;;;;;;;-141.50;100.00;63355.56;5012706;28;20049;-76
2021/04/29 09:24:50;;;;;;;9.50;3.30;;;;;;;-141.50;100.00;63355.56;5029556;28;20049;-75
2021/04/29 09:27:25;;;;;;;6.03;3.80;;;;;;;-141.50;100.00;63355.56;5030155;28;20053;-77
2021/04/29 09:30:05;;;;;;;6.25;4.03;;;;;;;-141.50;100.00;63355.56;5060433;28;20052;-76
2021/04/29 09:32:36;;;;;;;5.47;3.85;;;;;;;-141.50;100.00;63355.56;5048916;28;20052;-76
2021/04/29 09:35:07;;;;;;;6.90;4.30;;;;;;;-141.50;100.00;63355.56;5028777;28;20044;-75
2021/04/29 09:37:38;;;;;;;6.10;4.43;;;;;;;-141.50;100.00;63355.56;5046148;28;20049;-75
2021/04/29 09:40:21;;;;;;;6.80;4.43;;;;;;;-141.50;100.00;63355.56;5046795;28;20559;-75
2021/04/29 09:42:48;;;;;;;10.85;4.22;;;;;;;-141.50;100.00;63355.56;5028849;28;20102;-78
2021/04/29 09:45:31;;;;;;;6.15;4.35;;;;;;;-141.50;100.00;63355.56;5028549;28;20084;-69
2021/04/29 09:48:09;;;;;;;7.25;4.63;;;;;;;-141.50;100.00;63355.56;5046092;28;20053;-72
2021/04/29 09:50:38;;;;;;;7.50;5.18;;;;;;;-141.50;100.00;63355.56;5029306;28;20029;-77
2021/04/29 09:53:10;;;;;;;8.45;4.88;;;;;;;-141.50;100.00;63355.56;5047747;28;20767;-74
2021/04/29 09:55:42;;;;;;;8.68;4.68;;;;;;;-141.50;100.00;63355.56;5046320;28;20049;-72
2021/04/29 09:58:14;;;;;;;5.78;4.53;;;;;;;-141.50;100.00;63355.56;5045709;28;20055;-71
2021/04/29 10:00:41;;;;;;;6.10;4.47;;;;;;;-141.50;100.00;63355.56;5030731;28;20095;-74
2021/04/29 10:03:08;;;;;;;6.45;4.30;;;;;;;-141.50;100.00;63355.56;5045190;28;20049;-71
2021/04/29 10:05:38;;;;;;;5.97;3.95;;;;;;;-141.50;100.00;63355.56;5027946;28;20044;-68
2021/04/29 10:08:15;;;;;;;5.72;4.32;;;;;;;-141.50;100.00;63355.56;5049411;28;20682;-77
2021/04/29 10:10:44;;;;;;;12.13;4.90;;;;;;;-141.50;100.00;63355.56;5031323;28;20052;-76
2021/04/29 10:13:11;;;;;;;7.82;4.90;;;;;;;-141.50;100.00;63355.56;5030148;28;20059;-77
2021/04/29 10:15:39;;;;;;;7.25;5.05;;;;;;;-141.50;100.00;63355.56;5049257;28;20044;-76
2021/04/29 10:18:10;;;;;;;10.80;5.43;;;;;;;-141.50;100.00;63355.56;5054177;28;20055;-76
2021/04/29 10:20:41;;;;;;;7.30;5.03;;;;;;;-141.50;100.00;63355.56;5044137;28;20131;-76
2021/04/29 10:23:11;;;;;;;7.82;4.55;;;;;;;-141.50;100.00;63355.56;5029677;28;20051;-76
2021/04/29 10:25:38;;;;;;;10.73;5.70;;;;;;;-141.50;100.00;63355.56;5012028;28;20053;-75
2021/04/29 10:28:07;;;;;;;8.85;4.75;;;;;;;-141.50;100.00;63355.56;5046313;28;20199;-75
2021/04/29 10:30:38;;;;;;;12.32;5.28;;;;;;;-141.50;100.00;63355.56;5029686;28;20048;-76
2021/04/29 10:33:16;;;;;;;9.18;5.00;;;;;;;-141.50;100.00;63355.56;5033100;28;20045;-77
2021/04/29 10:36:11;;;;;;;8.20;4.25;;;;;;;-141.50;100.00;63355.56;5029226;28;20571;-76
2021/04/29 10:38:37;;;;;;;5.68;4.30;;;;;;;-141.50;100.00;63355.56;5046483;28;20053;-75
2021/04/29 10:41:17;;;;;;;10.02;5.20;;;;;;;-141.50;100.00;63355.56;5014550;28;20508;-74
2021/04/29 10:43:43;;;;;;;7.10;4.80;;;;;;;-141.50;100.00;63355.56;5047938;28;20391;-76
2021/04/29 10:46:10;;;;;;;8.90;4.90;;;;;;;-141.50;100.00;63355.56;5029627;28;20501;-75
2021/04/29 10:48:49;;;;;;;10.10;6.05;;;;;;;-141.50;100.00;63355.56;5029653;28;20045;-77
2021/04/29 10:51:16;;;;;;;8.60;4.80;;;;;;;-141.50;100.00;63355.56;5030528;28;20045;-76
2021/04/29 10:53:42;;;;;;;7.57;4.30;;;;;;;-141.50;100.00;63355.56;5029920;28;20332;-77
2021/04/29 10:56:15;;;;;;;8.95;4.47;;;;;;;-141.50;100.00;63355.56;5048639;28;20341;-75
2021/04/29 10:58:42;;;;;;;10.77;5.10;;;;;;;-141.50;100.00;63355.56;5045914;28;20048;-75
2021/04/29 11:01:17;;;;;;;6.63;4.25;;;;;;;-141.50;100.00;63355.56;5047566;28;20049;-76
2021/04/29 11:03:52;;;;;;;8.10;4.57;;;;;;;-141.50;100.00;63355.56;5048809;28;20428;-76
2021/04/29 11:06:27;;;;;;;8.95;4.40;;;;;;;-141.50;100.00;63355.56;5042949;28;20048;-75